createdAt,value
2017-09-04T00:00:24.984Z,0
2017-09-04T00:01:24.750Z,0
2017-09-04T00:02:25.049Z,0
2017-09-04T00:03:24.410Z,0
2017-09-04T00:04:24.100Z,0
2017-09-04T00:05:24.568Z,0
2017-09-04T00:06:25.026Z,0
2017-09-04T00:07:24.716Z,0
2017-09-04T00:08:24.403Z,0
2017-09-04T00:09:25.019Z,0
2017-09-04T00:10:24.875Z,0
2017-09-04T00:11:24.424Z,0
2017-09-04T00:12:24.696Z,0
2017-09-04T00:13:24.399Z,0
2017-09-04T00:14:25.051Z,0
2017-09-04T00:15:24.703Z,0
2017-09-04T00:16:24.450Z,0
2017-09-04T00:17:24.418Z,0
2017-09-04T00:18:25.008Z,0
2017-09-04T00:19:24.077Z,0
2017-09-04T00:20:24.845Z,0
2017-09-04T00:21:24.737Z,0
2017-09-04T00:22:24.682Z,0
2017-09-04T00:23:24.370Z,0
2017-09-04T00:24:24.678Z,0
2017-09-04T00:25:25.292Z,0
2017-09-04T00:26:25.002Z,0
2017-09-04T00:27:24.674Z,0
2017-09-04T00:28:24.047Z,0
2017-09-04T00:29:24.355Z,0
2017-09-04T00:30:24.265Z,0
2017-09-04T00:31:25.090Z,0
2017-09-04T00:32:24.966Z,0
2017-09-04T00:33:24.352Z,0
2017-09-04T00:34:24.661Z,0
2017-09-04T00:35:25.174Z,0
2017-09-04T00:36:24.401Z,0
2017-09-04T00:37:24.345Z,0
2017-09-04T00:38:24.654Z,0
2017-09-04T00:39:24.645Z,0
2017-09-04T00:40:24.339Z,0
2017-09-04T00:41:24.766Z,0
2017-09-04T00:42:24.964Z,0
2017-09-04T00:43:24.961Z,0
2017-09-04T00:44:25.003Z,0
2017-09-04T00:45:24.498Z,0
2017-09-04T00:46:24.421Z,0
2017-09-04T00:47:24.943Z,0
2017-09-04T00:48:24.620Z,0
2017-09-04T00:49:24.009Z,0
2017-09-04T00:50:24.788Z,0
2017-09-04T00:51:24.647Z,0
2017-09-04T00:52:24.930Z,0
2017-09-04T00:53:24.611Z,0
2017-09-04T00:54:24.951Z,0
2017-09-04T00:55:24.903Z,0
2017-09-04T00:56:24.004Z,0
2017-09-04T00:57:23.999Z,0
2017-09-04T00:58:24.918Z,0
2017-09-04T00:59:24.921Z,0
2017-09-04T01:00:24.622Z,0
2017-09-04T01:01:24.385Z,0
2017-09-04T01:02:24.288Z,0
2017-09-04T01:03:24.618Z,0
2017-09-04T01:04:24.596Z,0
2017-09-04T01:05:24.631Z,0
2017-09-04T01:06:24.664Z,0
2017-09-04T01:07:24.271Z,0
2017-09-04T01:08:24.587Z,0
2017-09-04T01:09:23.972Z,0
2017-09-04T01:10:25.028Z,0
2017-09-04T01:11:24.014Z,0
2017-09-04T01:12:24.259Z,0
2017-09-04T01:13:24.265Z,0
2017-09-04T01:14:24.571Z,0
2017-09-04T01:15:24.066Z,0
2017-09-04T01:16:24.896Z,0
2017-09-04T01:17:24.699Z,0
2017-09-04T01:18:24.567Z,0
2017-09-04T01:19:24.244Z,0
2017-09-04T01:20:24.996Z,0
2017-09-04T01:21:24.243Z,0
2017-09-04T01:22:23.948Z,0
2017-09-04T01:23:24.237Z,0
2017-09-04T01:24:24.245Z,0
2017-09-04T01:25:24.563Z,0
2017-09-04T01:26:24.883Z,0
2017-09-04T01:27:24.225Z,0
2017-09-04T01:28:23.610Z,0
2017-09-04T01:29:23.920Z,0
2017-09-04T01:30:24.426Z,0
2017-09-04T01:31:24.844Z,0
2017-09-04T01:32:24.525Z,0
2017-09-04T01:33:24.520Z,0
2017-09-04T01:34:24.832Z,0
2017-09-04T01:35:24.104Z,0
2017-09-04T01:36:24.529Z,0
2017-09-04T01:37:24.205Z,0
2017-09-04T01:38:24.515Z,0
2017-09-04T01:39:24.823Z,0
2017-09-04T01:40:24.430Z,0
2017-09-04T01:41:23.930Z,0
2017-09-04T01:42:24.496Z,0
2017-09-04T01:43:24.496Z,0
2017-09-04T01:44:24.493Z,0
2017-09-04T01:45:25.092Z,0
2017-09-04T01:46:24.863Z,0
2017-09-04T01:47:24.787Z,0
2017-09-04T01:48:24.796Z,0
2017-09-04T01:49:23.857Z,0
2017-09-04T01:50:24.896Z,0
2017-09-04T01:51:24.471Z,0
2017-09-04T01:52:24.160Z,0
2017-09-04T01:53:24.461Z,0
2017-09-04T01:54:24.766Z,0
2017-09-04T01:55:25.111Z,0
2017-09-04T01:56:24.196Z,0
2017-09-04T01:57:24.768Z,0
2017-09-04T01:58:24.150Z,0
2017-09-04T01:59:24.484Z,0
2017-09-04T02:00:25.334Z,0
2017-09-04T02:01:24.800Z,0
2017-09-04T02:02:24.473Z,0
2017-09-04T02:03:24.455Z,0
2017-09-04T02:04:24.133Z,0
2017-09-04T02:05:24.923Z,0
2017-09-04T02:06:24.792Z,0
2017-09-04T02:07:24.421Z,0
2017-09-04T02:08:24.779Z,0
2017-09-04T02:09:24.442Z,0
2017-09-04T02:10:24.102Z,0
2017-09-04T02:11:23.801Z,0
2017-09-04T02:12:24.415Z,0
2017-09-04T02:13:24.106Z,0
2017-09-04T02:14:24.091Z,0
2017-09-04T02:15:25.025Z,0
2017-09-04T02:16:23.862Z,0
2017-09-04T02:17:24.403Z,0
2017-09-04T02:18:24.404Z,0
2017-09-04T02:19:23.775Z,0
2017-09-04T02:20:25.048Z,0
2017-09-04T02:21:24.098Z,0
2017-09-04T02:22:24.709Z,0
2017-09-04T02:23:24.381Z,0
2017-09-04T02:24:24.066Z,0
2017-09-04T02:25:24.404Z,0
2017-09-04T02:26:24.157Z,0
2017-09-04T02:27:24.375Z,0
2017-09-04T02:28:24.674Z,0
2017-09-04T02:29:24.365Z,0
2017-09-04T02:30:24.819Z,0
2017-09-04T02:31:24.399Z,0
2017-09-04T02:32:24.370Z,0
2017-09-04T02:33:24.678Z,0
2017-09-04T02:34:24.663Z,0
2017-09-04T02:35:24.610Z,0
2017-09-04T02:36:23.781Z,0
2017-09-04T02:37:24.348Z,0
2017-09-04T02:38:24.349Z,0
2017-09-04T02:39:24.355Z,0
2017-09-04T02:40:24.974Z,0
2017-09-04T02:41:24.393Z,0
2017-09-04T02:42:24.342Z,0
2017-09-04T02:43:23.713Z,0
2017-09-04T02:44:24.321Z,0
2017-09-04T02:45:24.213Z,0
2017-09-04T02:46:24.710Z,0
2017-09-04T02:47:24.642Z,0
2017-09-04T02:48:24.317Z,0
2017-09-04T02:49:24.632Z,0
2017-09-04T02:50:24.588Z,0
2017-09-04T02:51:24.329Z,0
2017-09-04T02:52:23.694Z,0
2017-09-04T02:53:24.627Z,0
2017-09-04T02:54:24.309Z,0
2017-09-04T02:55:24.422Z,0
2017-09-04T02:56:24.023Z,0
2017-09-04T02:57:24.296Z,0
2017-09-04T02:58:24.609Z,0
2017-09-04T02:59:23.988Z,0
2017-09-04T03:00:24.894Z,0
2017-09-04T03:01:24.312Z,0
2017-09-04T03:02:24.586Z,0
2017-09-04T03:03:23.992Z,0
2017-09-04T03:04:24.584Z,0
2017-09-04T03:05:23.947Z,0
2017-09-04T03:06:24.314Z,0
2017-09-04T03:07:23.952Z,0
2017-09-04T03:08:23.984Z,0
2017-09-04T03:09:23.642Z,0
2017-09-04T03:10:25.195Z,0
2017-09-04T03:11:23.988Z,0
2017-09-04T03:12:24.252Z,0
2017-09-04T03:13:23.953Z,0
2017-09-04T03:14:24.253Z,0
2017-09-04T03:15:24.858Z,0
2017-09-04T03:16:24.310Z,0
2017-09-04T03:17:24.252Z,0
2017-09-04T03:18:24.243Z,0
2017-09-04T03:19:23.927Z,0
2017-09-04T03:20:23.416Z,0
2017-09-04T03:21:23.645Z,0
2017-09-04T03:22:23.932Z,0
2017-09-04T03:23:23.609Z,0
2017-09-04T03:24:24.231Z,0
2017-09-04T03:25:24.961Z,0
2017-09-04T03:26:24.259Z,0
2017-09-04T03:27:24.526Z,0
2017-09-04T03:28:23.588Z,0
2017-09-04T03:29:23.894Z,0
2017-09-04T03:30:23.909Z,0
2017-09-04T03:31:24.212Z,0
2017-09-04T03:32:24.513Z,0
2017-09-04T03:33:24.198Z,0
2017-09-04T03:34:23.883Z,0
2017-09-04T03:35:24.750Z,0
2017-09-04T03:36:24.248Z,0
2017-09-04T03:37:23.888Z,0
2017-09-04T03:38:23.867Z,0
2017-09-04T03:39:24.170Z,0
2017-09-04T03:40:24.502Z,0
2017-09-04T03:41:24.252Z,0
2017-09-04T03:42:23.870Z,0
2017-09-04T03:43:23.853Z,0
2017-09-04T03:44:23.891Z,0
2017-09-04T03:45:24.311Z,0
2017-09-04T03:46:23.898Z,0
2017-09-04T03:47:23.838Z,0
2017-09-04T03:48:23.528Z,0
2017-09-04T03:49:24.158Z,0
2017-09-04T03:50:24.254Z,0
2017-09-04T03:51:23.843Z,0
2017-09-04T03:52:23.829Z,0
2017-09-04T03:53:24.135Z,0
2017-09-04T03:54:23.818Z,0
2017-09-04T03:55:24.752Z,0
2017-09-04T03:56:24.141Z,0
2017-09-04T03:57:23.497Z,0
2017-09-04T03:58:24.121Z,0
2017-09-04T03:59:24.437Z,0
2017-09-04T04:00:24.765Z,0
2017-09-04T04:01:24.469Z,0
2017-09-04T04:02:24.411Z,0
2017-09-04T04:03:24.111Z,0
2017-09-04T04:04:23.175Z,0
2017-09-04T04:05:24.235Z,0
2017-09-04T04:06:25.419Z,0
2017-09-04T04:07:24.085Z,0
2017-09-04T04:08:24.096Z,0
2017-09-04T04:09:24.400Z,0
2017-09-04T04:10:24.251Z,0
2017-09-04T04:11:24.097Z,0
2017-09-04T04:12:24.072Z,0
2017-09-04T04:13:24.068Z,0
2017-09-04T04:14:23.770Z,0
2017-09-04T04:15:24.077Z,0
2017-09-04T04:16:23.779Z,0
2017-09-04T04:17:23.443Z,0
2017-09-04T04:18:23.748Z,0
2017-09-04T04:19:23.757Z,0
2017-09-04T04:20:24.608Z,0
2017-09-04T04:21:23.742Z,0
2017-09-04T04:22:23.738Z,0
2017-09-04T04:23:23.761Z,0
2017-09-04T04:24:24.352Z,0
2017-09-04T04:25:23.855Z,0
2017-09-04T04:26:24.036Z,0
2017-09-04T04:27:24.030Z,0
2017-09-04T04:28:23.741Z,0
2017-09-04T04:29:23.716Z,0
2017-09-04T04:30:24.115Z,0
2017-09-04T04:31:23.478Z,0
2017-09-04T04:32:24.330Z,0
2017-09-04T04:33:24.022Z,0
2017-09-04T04:34:24.023Z,0
2017-09-04T04:35:23.457Z,0
2017-09-04T04:36:23.409Z,0
2017-09-04T04:37:23.702Z,0
2017-09-04T04:38:23.702Z,5
2017-09-04T04:39:24.023Z,5
2017-09-04T04:40:23.911Z,5
2017-09-04T04:41:23.746Z,5
2017-09-04T04:42:23.051Z,5
2017-09-04T04:43:24.319Z,5
2017-09-04T04:44:23.777Z,5
2017-09-04T04:45:24.455Z,10
2017-09-04T04:46:23.966Z,10
2017-09-04T04:47:23.717Z,10
2017-09-04T04:48:23.651Z,10
2017-09-04T04:49:23.653Z,10
2017-09-04T04:50:24.817Z,15
2017-09-04T04:51:23.965Z,15
2017-09-04T04:52:24.260Z,15
2017-09-04T04:53:23.983Z,15
2017-09-04T04:54:23.943Z,15
2017-09-04T04:55:24.497Z,20
2017-09-04T04:56:24.322Z,20
2017-09-04T04:57:23.616Z,20
2017-09-04T04:58:23.639Z,20
2017-09-04T04:59:24.243Z,25
2017-09-04T05:00:24.179Z,25
2017-09-04T05:01:23.637Z,25
2017-09-04T05:02:23.288Z,30
2017-09-04T05:03:23.596Z,30
2017-09-04T05:04:23.602Z,30
2017-09-04T05:05:24.094Z,30
2017-09-04T05:06:24.039Z,35
2017-09-04T05:07:23.579Z,35
2017-09-04T05:08:23.902Z,40
2017-09-04T05:09:24.026Z,40
2017-09-04T05:10:24.140Z,45
2017-09-04T05:11:23.928Z,45
2017-09-04T05:12:23.884Z,50
2017-09-04T05:13:23.867Z,55
2017-09-04T05:14:23.863Z,60
2017-09-04T05:15:23.719Z,65
2017-09-04T05:16:23.285Z,65
2017-09-04T05:17:23.244Z,70
2017-09-04T05:18:23.847Z,75
2017-09-04T05:19:23.546Z,80
2017-09-04T05:20:24.375Z,85
2017-09-04T05:21:23.849Z,90
2017-09-04T05:22:23.528Z,95
2017-09-04T05:23:23.534Z,95
2017-09-04T05:24:23.224Z,85
2017-09-04T05:25:23.755Z,80
2017-09-04T05:26:23.922Z,75
2017-09-04T05:27:23.566Z,85
2017-09-04T05:28:24.131Z,95
2017-09-04T05:29:23.505Z,110
2017-09-04T05:30:24.656Z,100
2017-09-04T05:31:23.865Z,90
2017-09-04T05:32:23.501Z,60
2017-09-04T05:33:23.507Z,60
2017-09-04T05:34:23.813Z,60
2017-09-04T05:35:24.968Z,60
2017-09-04T05:36:23.183Z,65
2017-09-04T05:37:23.805Z,60
2017-09-04T05:38:23.500Z,70
2017-09-04T05:39:23.798Z,75
2017-09-04T05:40:24.350Z,70
2017-09-04T05:41:23.844Z,65
2017-09-04T05:42:23.790Z,65
2017-09-04T05:43:24.107Z,65
2017-09-04T05:44:23.175Z,65
2017-09-04T05:45:23.996Z,65
2017-09-04T05:46:23.554Z,65
2017-09-04T05:47:24.096Z,65
2017-09-04T05:48:23.151Z,70
2017-09-04T05:49:23.499Z,70
2017-09-04T05:50:24.195Z,75
2017-09-04T05:51:24.073Z,80
2017-09-04T05:52:23.759Z,85
2017-09-04T05:53:23.759Z,95
2017-09-04T05:54:23.137Z,90
2017-09-04T05:55:24.517Z,100
2017-09-04T05:56:24.160Z,95
2017-09-04T05:57:23.758Z,115
2017-09-04T05:58:23.745Z,120
2017-09-04T05:59:23.758Z,125
2017-09-04T06:00:24.612Z,125
2017-09-04T06:01:24.111Z,130
2017-09-04T06:02:23.755Z,130
2017-09-04T06:03:23.751Z,130
2017-09-04T06:04:24.076Z,130
2017-09-04T06:05:24.228Z,135
2017-09-04T06:06:24.061Z,135
2017-09-04T06:07:23.416Z,135
2017-09-04T06:08:23.414Z,140
2017-09-04T06:09:24.066Z,140
2017-09-04T06:10:24.400Z,145
2017-09-04T06:11:23.496Z,145
2017-09-04T06:12:23.410Z,150
2017-09-04T06:13:23.735Z,145
2017-09-04T06:14:24.038Z,145
2017-09-04T06:15:24.461Z,145
2017-09-04T06:16:23.464Z,150
2017-09-04T06:17:23.714Z,155
2017-09-04T06:18:23.431Z,160
2017-09-04T06:19:23.090Z,165
2017-09-04T06:20:24.578Z,160
2017-09-04T06:21:24.090Z,165
2017-09-04T06:22:23.407Z,185
2017-09-04T06:23:23.716Z,185
2017-09-04T06:24:23.736Z,175
2017-09-04T06:25:24.488Z,165
2017-09-04T06:26:23.740Z,215
2017-09-04T06:27:24.025Z,230
2017-09-04T06:28:23.701Z,235
2017-09-04T06:29:23.392Z,230
2017-09-04T06:30:23.651Z,170
2017-09-04T06:31:23.392Z,155
2017-09-04T06:32:24.006Z,180
2017-09-04T06:33:23.715Z,190
2017-09-04T06:34:24.013Z,150
2017-09-04T06:35:23.758Z,165
2017-09-04T06:36:23.496Z,155
2017-09-04T06:37:24.033Z,160
2017-09-04T06:38:23.711Z,160
2017-09-04T06:39:23.706Z,210
2017-09-04T06:40:24.191Z,245
2017-09-04T06:41:23.757Z,250
2017-09-04T06:42:23.726Z,245
2017-09-04T06:43:23.734Z,210
2017-09-04T06:44:23.095Z,215
2017-09-04T06:45:23.789Z,230
2017-09-04T06:46:23.721Z,225
2017-09-04T06:47:24.033Z,255
2017-09-04T06:48:23.732Z,265
2017-09-04T06:49:24.043Z,280
2017-09-04T06:50:24.107Z,290
2017-09-04T06:51:23.128Z,290
2017-09-04T06:52:23.416Z,285
2017-09-04T06:53:23.440Z,250
2017-09-04T06:54:24.059Z,235
2017-09-04T06:55:24.219Z,210
2017-09-04T06:56:23.803Z,205
2017-09-04T06:57:23.431Z,220
2017-09-04T06:58:23.756Z,210
2017-09-04T06:59:23.137Z,215
2017-09-04T07:00:24.799Z,235
2017-09-04T07:01:23.506Z,245
2017-09-04T07:02:24.078Z,260
2017-09-04T07:03:24.084Z,285
2017-09-04T07:04:23.781Z,295
2017-09-04T07:05:23.878Z,295
2017-09-04T07:06:23.782Z,315
2017-09-04T07:07:23.161Z,305
2017-09-04T07:08:23.481Z,275
2017-09-04T07:09:23.161Z,260
2017-09-04T07:10:23.925Z,250
2017-09-04T07:11:23.493Z,230
2017-09-04T07:12:23.485Z,240
2017-09-04T07:13:23.813Z,220
2017-09-04T07:14:24.120Z,230
2017-09-04T07:15:24.071Z,245
2017-09-04T07:16:23.227Z,230
2017-09-04T07:17:23.845Z,245
2017-09-04T07:18:23.517Z,230
2017-09-04T07:19:23.508Z,250
2017-09-04T07:20:24.830Z,240
2017-09-04T07:21:23.267Z,265
2017-09-04T07:22:24.159Z,270
2017-09-04T07:23:23.526Z,280
2017-09-04T07:24:23.844Z,300
2017-09-04T07:25:23.767Z,300
2017-09-04T07:26:23.930Z,295
2017-09-04T07:27:23.857Z,315
2017-09-04T07:28:23.856Z,320
2017-09-04T07:29:23.537Z,325
2017-09-04T07:30:24.429Z,315
2017-09-04T07:31:23.908Z,310
2017-09-04T07:32:24.162Z,320
2017-09-04T07:33:23.255Z,320
2017-09-04T07:34:23.863Z,290
2017-09-04T07:35:24.568Z,285
2017-09-04T07:36:23.611Z,310
2017-09-04T07:37:22.949Z,310
2017-09-04T07:38:23.888Z,325
2017-09-04T07:39:23.890Z,330
2017-09-04T07:40:23.677Z,330
2017-09-04T07:41:23.346Z,330
2017-09-04T07:42:23.609Z,315
2017-09-04T07:43:23.917Z,300
2017-09-04T07:44:23.613Z,265
2017-09-04T07:45:23.940Z,235
2017-09-04T07:46:23.668Z,220
2017-09-04T07:47:23.316Z,245
2017-09-04T07:48:23.938Z,245
2017-09-04T07:49:23.950Z,225
2017-09-04T07:50:24.489Z,215
2017-09-04T07:51:23.737Z,235
2017-09-04T07:52:23.643Z,240
2017-09-04T07:53:23.972Z,245
2017-09-04T07:54:23.981Z,240
2017-09-04T07:55:24.238Z,245
2017-09-04T07:56:23.713Z,250
2017-09-04T07:57:23.987Z,260
2017-09-04T07:58:23.364Z,265
2017-09-04T07:59:23.685Z,270
2017-09-04T08:00:24.052Z,290
2017-09-04T08:01:24.358Z,300
2017-09-04T08:02:23.371Z,305
2017-09-04T08:03:23.698Z,310
2017-09-04T08:04:23.690Z,310
2017-09-04T08:05:24.234Z,315
2017-09-04T08:06:24.068Z,315
2017-09-04T08:07:24.325Z,315
2017-09-04T08:08:24.021Z,290
2017-09-04T08:09:23.717Z,290
2017-09-04T08:10:23.806Z,305
2017-09-04T08:11:23.727Z,310
2017-09-04T08:12:23.730Z,320
2017-09-04T08:13:24.348Z,310
2017-09-04T08:14:24.052Z,300
2017-09-04T08:15:24.056Z,305
2017-09-04T08:16:23.814Z,300
2017-09-04T08:17:24.067Z,295
2017-09-04T08:18:24.068Z,275
2017-09-04T08:19:24.072Z,270
2017-09-04T08:20:23.935Z,290
2017-09-04T08:21:24.413Z,265
2017-09-04T08:22:23.776Z,255
2017-09-04T08:23:23.782Z,250
2017-09-04T08:24:23.786Z,255
2017-09-04T08:25:24.683Z,260
2017-09-04T08:26:24.137Z,255
2017-09-04T08:27:24.432Z,285
2017-09-04T08:28:24.417Z,300
2017-09-04T08:29:23.823Z,305
2017-09-04T08:30:24.439Z,315
2017-09-04T08:31:23.565Z,315
2017-09-04T08:32:24.444Z,320
2017-09-04T08:33:23.835Z,310
2017-09-04T08:34:23.845Z,310
2017-09-04T08:35:24.289Z,305
2017-09-04T08:36:23.893Z,300
2017-09-04T08:37:23.856Z,295
2017-09-04T08:38:23.558Z,290
2017-09-04T08:39:24.169Z,280
2017-09-04T08:40:24.669Z,290
2017-09-04T08:41:23.876Z,290
2017-09-04T08:42:24.516Z,285
2017-09-04T08:43:23.906Z,285
2017-09-04T08:44:23.897Z,270
2017-09-04T08:45:24.103Z,280
2017-09-04T08:46:23.902Z,290
2017-09-04T08:47:24.529Z,285
2017-09-04T08:48:24.533Z,285
2017-09-04T08:49:24.241Z,280
2017-09-04T08:50:24.009Z,280
2017-09-04T08:51:23.983Z,285
2017-09-04T08:52:24.550Z,285
2017-09-04T08:53:24.243Z,290
2017-09-04T08:54:23.941Z,290
2017-09-04T08:55:24.242Z,290
2017-09-04T08:56:23.990Z,290
2017-09-04T08:57:24.252Z,295
2017-09-04T08:58:24.256Z,285
2017-09-04T08:59:23.653Z,295
2017-09-04T09:00:24.636Z,295
2017-09-04T09:01:24.026Z,295
2017-09-04T09:02:23.349Z,295
2017-09-04T09:03:24.271Z,295
2017-09-04T09:04:24.275Z,295
2017-09-04T09:05:24.744Z,300
2017-09-04T09:06:24.651Z,290
2017-09-04T09:07:24.286Z,295
2017-09-04T09:08:23.985Z,295
2017-09-04T09:09:24.337Z,300
2017-09-04T09:10:24.735Z,305
2017-09-04T09:11:23.725Z,310
2017-09-04T09:12:24.321Z,315
2017-09-04T09:13:24.306Z,320
2017-09-04T09:14:23.993Z,315
2017-09-04T09:15:24.282Z,290
2017-09-04T09:16:24.019Z,315
2017-09-04T09:17:24.319Z,305
2017-09-04T09:18:24.651Z,300
2017-09-04T09:19:23.401Z,280
2017-09-04T09:20:24.271Z,320
2017-09-04T09:21:24.378Z,335
2017-09-04T09:22:24.333Z,340
2017-09-04T09:23:24.342Z,335
2017-09-04T09:24:24.340Z,330
2017-09-04T09:25:24.163Z,310
2017-09-04T09:26:24.351Z,285
2017-09-04T09:27:24.349Z,315
2017-09-04T09:28:24.046Z,285
2017-09-04T09:29:24.359Z,315
2017-09-04T09:30:24.476Z,275
2017-09-04T09:31:24.400Z,280
2017-09-04T09:32:24.371Z,290
2017-09-04T09:33:23.761Z,280
2017-09-04T09:34:24.680Z,275
2017-09-04T09:35:24.431Z,305
2017-09-04T09:36:24.393Z,310
2017-09-04T09:37:24.387Z,285
2017-09-04T09:38:24.098Z,275
2017-09-04T09:39:24.388Z,295
2017-09-04T09:40:24.552Z,285
2017-09-04T09:41:24.756Z,305
2017-09-04T09:42:24.098Z,310
2017-09-04T09:43:24.419Z,315
2017-09-04T09:44:24.419Z,325
2017-09-04T09:45:24.220Z,320
2017-09-04T09:46:24.189Z,310
2017-09-04T09:47:24.174Z,300
2017-09-04T09:48:24.431Z,300
2017-09-04T09:49:24.423Z,255
2017-09-04T09:50:24.897Z,245
2017-09-04T09:51:24.452Z,280
2017-09-04T09:52:24.756Z,270
2017-09-04T09:53:24.319Z,260
2017-09-04T09:54:24.546Z,260
2017-09-04T09:55:24.412Z,265
2017-09-04T09:56:24.363Z,280
2017-09-04T09:57:23.960Z,295
2017-09-04T09:58:24.074Z,280
2017-09-04T09:59:24.480Z,265
2017-09-04T10:00:24.383Z,300
2017-09-04T10:01:24.377Z,310
2017-09-04T10:02:25.515Z,310
2017-09-04T10:03:25.437Z,305
2017-09-04T10:04:24.866Z,335
2017-09-04T10:05:25.419Z,310
2017-09-04T10:06:25.060Z,300
2017-09-04T10:07:24.947Z,290
2017-09-04T10:08:24.932Z,295
2017-09-04T10:09:25.082Z,315
2017-09-04T10:10:24.140Z,310
2017-09-04T10:11:25.247Z,310
2017-09-04T10:12:24.482Z,330
2017-09-04T10:13:24.854Z,345
2017-09-04T10:14:25.059Z,295
2017-09-04T10:15:25.135Z,305
2017-09-04T10:16:24.216Z,300
2017-09-04T10:17:25.740Z,310
2017-09-04T10:18:24.940Z,320
2017-09-04T10:19:24.815Z,320
2017-09-04T10:20:25.144Z,330
2017-09-04T10:21:25.010Z,330
2017-09-04T10:22:24.572Z,320
2017-09-04T10:23:24.883Z,335
2017-09-04T10:24:23.840Z,340
2017-09-04T10:25:24.813Z,345
2017-09-04T10:26:25.237Z,340
2017-09-04T10:27:25.379Z,335
2017-09-04T10:28:24.611Z,335
2017-09-04T10:29:25.371Z,305
2017-09-04T10:30:25.092Z,325
2017-09-04T10:31:24.599Z,310
2017-09-04T10:32:25.398Z,335
2017-09-04T10:33:25.581Z,350
2017-09-04T10:34:25.719Z,355
2017-09-04T10:35:25.221Z,325
2017-09-04T10:36:25.305Z,320
2017-09-04T10:37:24.025Z,310
2017-09-04T10:38:25.310Z,335
2017-09-04T10:39:24.969Z,350
2017-09-04T10:40:25.385Z,345
2017-09-04T10:41:25.486Z,340
2017-09-04T10:42:24.803Z,335
2017-09-04T10:43:24.414Z,340
2017-09-04T10:44:24.693Z,345
2017-09-04T10:45:24.924Z,350
2017-09-04T10:46:25.104Z,345
2017-09-04T10:47:25.064Z,315
2017-09-04T10:48:25.327Z,305
2017-09-04T10:49:24.540Z,315
2017-09-04T10:50:24.637Z,340
2017-09-04T10:51:24.976Z,335
2017-09-04T10:52:25.389Z,325
2017-09-04T10:53:25.294Z,290
2017-09-04T10:54:25.368Z,325
2017-09-04T10:55:25.426Z,315
2017-09-04T10:56:24.930Z,325
2017-09-04T10:57:25.394Z,335
2017-09-04T10:58:25.000Z,295
2017-09-04T10:59:25.257Z,315
2017-09-04T11:00:24.574Z,320
2017-09-04T11:01:24.320Z,315
2017-09-04T11:02:25.010Z,300
2017-09-04T11:03:24.591Z,340
2017-09-04T11:04:24.658Z,330
2017-09-04T11:05:25.240Z,325
2017-09-04T11:06:24.303Z,315
2017-09-04T11:07:25.158Z,310
2017-09-04T11:08:24.796Z,295
2017-09-04T11:09:24.819Z,280
2017-09-04T11:10:24.880Z,275
2017-09-04T11:11:24.233Z,260
2017-09-04T11:12:24.542Z,265
2017-09-04T11:13:24.959Z,260
2017-09-04T11:14:24.896Z,250
2017-09-04T11:15:24.893Z,240
2017-09-04T11:16:24.527Z,250
2017-09-04T11:17:24.795Z,235
2017-09-04T11:18:25.182Z,245
2017-09-04T11:19:24.801Z,235
2017-09-04T11:20:24.798Z,250
2017-09-04T11:21:24.881Z,250
2017-09-04T11:22:24.850Z,265
2017-09-04T11:23:24.505Z,245
2017-09-04T11:24:24.840Z,245
2017-09-04T11:25:24.425Z,260
2017-09-04T11:26:24.565Z,265
2017-09-04T11:27:24.513Z,280
2017-09-04T11:28:25.146Z,290
2017-09-04T11:29:24.833Z,285
2017-09-04T11:30:25.079Z,285
2017-09-04T11:31:24.576Z,295
2017-09-04T11:32:25.149Z,270
2017-09-04T11:33:24.864Z,270
2017-09-04T11:34:24.862Z,285
2017-09-04T11:35:24.878Z,295
2017-09-04T11:36:24.288Z,270
2017-09-04T11:37:24.241Z,265
2017-09-04T11:38:24.890Z,265
2017-09-04T11:39:24.891Z,280
2017-09-04T11:40:24.875Z,280
2017-09-04T11:41:24.916Z,280
2017-09-04T11:42:25.192Z,275
2017-09-04T11:43:25.196Z,280
2017-09-04T11:44:24.888Z,280
2017-09-04T11:45:25.197Z,270
2017-09-04T11:46:24.625Z,270
2017-09-04T11:47:25.228Z,270
2017-09-04T11:48:24.913Z,275
2017-09-04T11:49:24.615Z,295
2017-09-04T11:50:24.936Z,295
2017-09-04T11:51:25.005Z,295
2017-09-04T11:52:24.917Z,280
2017-09-04T11:53:24.925Z,275
2017-09-04T11:54:24.625Z,235
2017-09-04T11:55:25.276Z,230
2017-09-04T11:56:24.989Z,245
2017-09-04T11:57:25.296Z,225
2017-09-04T11:58:25.254Z,225
2017-09-04T11:59:24.638Z,230
2017-09-04T12:00:24.986Z,235
2017-09-04T12:01:24.104Z,260
2017-09-04T12:02:24.649Z,265
2017-09-04T12:03:25.305Z,250
2017-09-04T12:04:24.969Z,260
2017-09-04T12:05:24.972Z,245
2017-09-04T12:06:24.670Z,275
2017-09-04T12:07:24.983Z,270
2017-09-04T12:08:25.008Z,235
2017-09-04T12:09:24.991Z,225
2017-09-04T12:10:24.991Z,220
2017-09-04T12:11:25.040Z,220
2017-09-04T12:12:25.016Z,220
2017-09-04T12:13:25.332Z,210
2017-09-04T12:14:25.006Z,205
2017-09-04T12:15:25.024Z,220
2017-09-04T12:16:25.332Z,250
2017-09-04T12:17:24.733Z,235
2017-09-04T12:18:25.344Z,205
2017-09-04T12:19:25.351Z,210
2017-09-04T12:20:25.358Z,220
2017-09-04T12:21:25.063Z,210
2017-09-04T12:22:25.041Z,230
2017-09-04T12:23:25.049Z,210
2017-09-04T12:24:25.045Z,215
2017-09-04T12:25:24.864Z,215
2017-09-04T12:26:25.090Z,200
2017-09-04T12:27:24.762Z,200
2017-09-04T12:28:25.077Z,190
2017-09-04T12:29:24.764Z,180
2017-09-04T12:30:25.124Z,185
2017-09-04T12:31:24.829Z,180
2017-09-04T12:32:25.406Z,165
2017-09-04T12:33:24.471Z,165
2017-09-04T12:34:25.096Z,160
2017-09-04T12:35:25.152Z,155
2017-09-04T12:36:25.122Z,155
2017-09-04T12:37:25.405Z,160
2017-09-04T12:38:25.414Z,165
2017-09-04T12:39:24.815Z,165
2017-09-04T12:40:24.806Z,170
2017-09-04T12:41:24.810Z,175
2017-09-04T12:42:25.425Z,185
2017-09-04T12:43:24.816Z,205
2017-09-04T12:44:25.449Z,190
2017-09-04T12:45:24.974Z,190
2017-09-04T12:46:25.223Z,190
2017-09-04T12:47:24.836Z,195
2017-09-04T12:48:24.837Z,185
2017-09-04T12:49:25.139Z,180
2017-09-04T12:50:24.879Z,180
2017-09-04T12:51:25.214Z,175
2017-09-04T12:52:25.505Z,175
2017-09-04T12:53:25.172Z,165
2017-09-04T12:54:25.470Z,155
2017-09-04T12:55:24.869Z,155
2017-09-04T12:56:25.542Z,160
2017-09-04T12:57:24.564Z,165
2017-09-04T12:58:24.886Z,175
2017-09-04T12:59:25.490Z,180
2017-09-04T13:00:25.187Z,190
2017-09-04T13:01:25.556Z,215
2017-09-04T13:02:24.889Z,200
2017-09-04T13:03:25.256Z,200
2017-09-04T13:04:24.913Z,205
2017-09-04T13:05:24.974Z,215
2017-09-04T13:06:24.655Z,220
2017-09-04T13:07:24.911Z,220
2017-09-04T13:08:24.948Z,215
2017-09-04T13:09:24.920Z,215
2017-09-04T13:10:24.924Z,210
2017-09-04T13:11:25.597Z,205
2017-09-04T13:12:25.536Z,205
2017-09-04T13:13:25.557Z,200
2017-09-04T13:14:25.239Z,205
2017-09-04T13:15:25.066Z,205
2017-09-04T13:16:25.288Z,205
2017-09-04T13:17:25.259Z,205
2017-09-04T13:18:25.262Z,215
2017-09-04T13:19:25.252Z,205
2017-09-04T13:20:25.574Z,200
2017-09-04T13:21:24.987Z,205
2017-09-04T13:22:25.592Z,205
2017-09-04T13:23:24.971Z,210
2017-09-04T13:24:25.608Z,205
2017-09-04T13:25:24.661Z,210
2017-09-04T13:26:25.046Z,210
2017-09-04T13:27:25.601Z,210
2017-09-04T13:28:24.986Z,215
2017-09-04T13:29:25.308Z,215
2017-09-04T13:30:24.997Z,215
2017-09-04T13:31:25.328Z,215
2017-09-04T13:32:25.341Z,210
2017-09-04T13:33:25.054Z,210
2017-09-04T13:34:25.646Z,205
2017-09-04T13:35:25.648Z,205
2017-09-04T13:36:25.374Z,205
2017-09-04T13:37:25.327Z,205
2017-09-04T13:38:25.031Z,210
2017-09-04T13:39:25.081Z,210
2017-09-04T13:40:25.052Z,210
2017-09-04T13:41:24.487Z,215
2017-09-04T13:42:25.371Z,210
2017-09-04T13:43:25.669Z,215
2017-09-04T13:44:25.048Z,215
2017-09-04T13:45:25.667Z,220
2017-09-04T13:46:25.437Z,220
2017-09-04T13:47:25.374Z,220
2017-09-04T13:48:24.754Z,220
2017-09-04T13:49:25.686Z,215
2017-09-04T13:50:24.454Z,215
2017-09-04T13:51:25.109Z,210
2017-09-04T13:52:25.108Z,205
2017-09-04T13:53:25.435Z,205
2017-09-04T13:54:25.099Z,210
2017-09-04T13:55:25.707Z,205
2017-09-04T13:56:25.127Z,205
2017-09-04T13:57:25.439Z,205
2017-09-04T13:58:25.733Z,205
2017-09-04T13:59:25.736Z,205
2017-09-04T14:00:25.347Z,210
2017-09-04T14:01:24.886Z,205
2017-09-04T14:02:25.438Z,205
2017-09-04T14:03:25.444Z,205
2017-09-04T14:04:25.458Z,200
2017-09-04T14:05:25.453Z,200
2017-09-04T14:06:25.197Z,195
2017-09-04T14:07:25.781Z,195
2017-09-04T14:08:25.164Z,190